Time;durP1;ratioP1;P1;durP2;ratioP2;P2;SDS_P1;SDS_P2;PMS_P1;PMS_P2;Temp;Humidity;BMP_temperature;BMP_pressure;BME280_temperature;BME280_humidity;BME280_pressure;Samples;Min_cycle;Max_cycle;Signal;HPM_P1;HPM_P2
2020/12/04 00:01:38;;;;;;;25.98;13.00;;;2.10;59.20;;;;;;5054074;28;20490;-71
2020/12/04 00:04:05;;;;;;;22.73;12.00;;;2.10;59.30;;;;;;5055247;28;20024;-73
2020/12/04 00:06:33;;;;;;;31.63;16.20;;;2.10;59.40;;;;;;5055160;28;20029;-71
2020/12/04 00:09:00;;;;;;;26.48;12.43;;;2.10;59.80;;;;;;5053532;28;20052;-71
2020/12/04 00:11:27;;;;;;;26.60;14.23;;;2.10;60.00;;;;;;5055048;28;20424;-71
2020/12/04 00:13:53;;;;;;;28.55;14.65;;;2.10;60.10;;;;;;5055395;28;20096;-71
2020/12/04 00:16:19;;;;;;;26.55;13.05;;;2.10;60.20;;;;;;5055357;28;20509;-70
2020/12/04 00:18:45;;;;;;;27.60;14.15;;;2.10;60.00;;;;;;5053666;28;20119;-72
2020/12/04 00:21:13;;;;;;;32.90;15.98;;;2.10;60.00;;;;;;5054655;28;20036;-71
2020/12/04 00:23:39;;;;;;;33.67;17.42;;;2.10;60.10;;;;;;5054773;28;20053;-72
2020/12/04 00:26:05;;;;;;;30.33;15.82;;;2.00;60.10;;;;;;5055318;28;20420;-73
2020/12/04 00:28:31;;;;;;;30.55;14.68;;;2.10;60.20;;;;;;5054300;28;20025;-71
2020/12/04 00:30:57;;;;;;;29.50;13.95;;;2.00;60.20;;;;;;5054944;28;20025;-71
2020/12/04 00:33:22;;;;;;;28.42;14.60;;;2.00;60.20;;;;;;5053391;28;20043;-71
2020/12/04 00:35:48;;;;;;;27.58;13.43;;;2.00;60.40;;;;;;5054292;28;20316;-71
2020/12/04 00:38:14;;;;;;;25.77;13.63;;;2.00;60.30;;;;;;5054552;28;20025;-70
2020/12/04 00:40:39;;;;;;;31.55;15.65;;;2.00;60.30;;;;;;5052937;28;20083;-73
2020/12/04 00:43:05;;;;;;;34.53;17.08;;;2.00;60.20;;;;;;5053853;28;20497;-72
2020/12/04 00:45:31;;;;;;;32.17;15.27;;;2.00;60.20;;;;;;5053014;28;20029;-72
2020/12/04 00:47:57;;;;;;;25.77;12.50;;;2.00;60.10;;;;;;5054428;28;20021;-71
2020/12/04 00:50:23;;;;;;;27.20;13.73;;;2.00;60.00;;;;;;5054137;28;20027;-70
2020/12/04 00:52:49;;;;;;;21.08;10.98;;;1.90;59.90;;;;;;5054353;28;20474;-73
2020/12/04 00:55:17;;;;;;;24.42;12.57;;;1.90;60.60;;;;;;5054278;28;20143;-71
2020/12/04 00:57:43;;;;;;;31.88;15.40;;;1.90;59.90;;;;;;5054022;28;20490;-73
2020/12/04 01:00:09;;;;;;;30.75;15.00;;;1.90;60.00;;;;;;5054209;28;20044;-72
2020/12/04 01:02:35;;;;;;;25.42;12.02;;;1.80;60.10;;;;;;5054449;28;20099;-70
2020/12/04 01:05:00;;;;;;;28.85;14.07;;;1.80;60.00;;;;;;5052351;28;20029;-72
2020/12/04 01:07:26;;;;;;;31.48;14.80;;;1.80;60.10;;;;;;5054300;28;20397;-71
2020/12/04 01:09:52;;;;;;;27.95;13.43;;;1.80;60.10;;;;;;5053999;28;20071;-71
2020/12/04 01:12:17;;;;;;;25.98;13.55;;;1.80;60.10;;;;;;5054244;28;20463;-72
2020/12/04 01:14:43;;;;;;;28.83;13.35;;;1.80;60.00;;;;;;5053948;28;20130;-71
2020/12/04 01:17:09;;;;;;;30.25;14.88;;;1.80;60.20;;;;;;5053967;28;20040;-71
2020/12/04 01:19:35;;;;;;;24.70;12.80;;;1.80;60.30;;;;;;5053908;28;20025;-72
2020/12/04 01:22:00;;;;;;;40.70;19.58;;;1.70;60.30;;;;;;5052921;28;20386;-72
2020/12/04 01:24:26;;;;;;;32.47;16.17;;;1.70;60.30;;;;;;5053617;28;20056;-71
2020/12/04 01:26:52;;;;;;;33.97;17.58;;;1.70;60.40;;;;;;5054074;28;20478;-71
2020/12/04 01:29:18;;;;;;;29.02;14.68;;;1.70;60.50;;;;;;5053736;28;20031;-73
2020/12/04 01:31:47;;;;;;;30.02;15.48;;;1.70;60.50;;;;;;5052320;28;20055;-72
2020/12/04 01:34:14;;;;;;;29.15;14.32;;;1.70;60.50;;;;;;5052365;28;20535;-73
2020/12/04 01:36:40;;;;;;;25.30;13.65;;;1.70;60.70;;;;;;5053288;28;20074;-71
2020/12/04 01:39:06;;;;;;;30.27;15.63;;;1.70;60.80;;;;;;5052713;28;20017;-72
2020/12/04 01:41:33;;;;;;;28.65;13.82;;;1.60;60.80;;;;;;5053606;28;20489;-72
2020/12/04 01:43:59;;;;;;;30.65;15.48;;;1.60;60.90;;;;;;5053531;28;20441;-71
2020/12/04 01:46:25;;;;;;;24.90;13.05;;;1.60;60.90;;;;;;5053423;28;20032;-73
2020/12/04 01:48:51;;;;;;;31.55;15.77;;;1.60;60.80;;;;;;5053539;28;20029;-71
2020/12/04 01:51:17;;;;;;;28.60;14.20;;;1.60;60.90;;;;;;5053498;28;20435;-72
2020/12/04 01:53:45;;;;;;;28.20;13.77;;;1.60;60.90;;;;;;5053307;28;20378;-74
2020/12/04 01:56:11;;;;;;;28.80;14.50;;;1.50;61.00;;;;;;5053660;28;20036;-72
2020/12/04 01:58:37;;;;;;;29.77;14.25;;;1.50;61.00;;;;;;5053379;28;20390;-73
2020/12/04 02:01:06;;;;;;;25.98;13.18;;;1.50;61.00;;;;;;5053127;28;20040;-73
2020/12/04 02:03:34;;;;;;;27.98;14.48;;;1.50;61.00;;;;;;5053170;28;20029;-73
2020/12/04 02:06:05;;;;;;;22.20;11.35;;;1.50;61.00;;;;;;5053217;28;20029;-73
2020/12/04 02:08:45;;;;;;;26.45;12.90;;;1.50;61.70;;;;;;5053565;28;20094;-71
2020/12/04 02:11:20;;;;;;;27.77;14.43;;;1.50;61.00;;;;;;5052643;28;20071;-73
2020/12/04 02:13:48;;;;;;;30.83;14.73;;;1.50;61.20;;;;;;5051972;28;20025;-72
2020/12/04 02:16:24;;;;;;;23.73;12.55;;;1.50;61.30;;;;;;5042198;28;20109;-72
2020/12/04 02:18:51;;;;;;;27.25;13.27;;;1.40;61.40;;;;;;5050936;28;20028;-71
2020/12/04 02:21:17;;;;;;;24.02;11.70;;;1.50;61.40;;;;;;5053193;28;20029;-73
2020/12/04 02:23:49;;;;;;;23.90;11.52;;;1.50;61.30;;;;;;5052718;28;20060;-73
2020/12/04 02:26:18;;;;;;;21.83;11.95;;;1.40;61.30;;;;;;5051899;28;20057;-72
2020/12/04 02:28:44;;;;;;;26.75;13.90;;;1.40;61.40;;;;;;5052967;28;20029;-73
2020/12/04 02:31:10;;;;;;;25.58;13.48;;;1.50;61.80;;;;;;5053160;28;20021;-73
2020/12/04 02:33:35;;;;;;;24.95;12.63;;;1.40;62.10;;;;;;5054090;28;20424;-72
2020/12/04 02:36:03;;;;;;;24.55;13.05;;;1.40;62.20;;;;;;5053629;28;20452;-73
2020/12/04 02:38:29;;;;;;;24.50;12.10;;;1.40;62.20;;;;;;5053039;28;20025;-71
2020/12/04 02:40:55;;;;;;;22.65;11.80;;;1.40;62.00;;;;;;5051671;28;20033;-73
2020/12/04 02:43:22;;;;;;;31.45;15.35;;;1.40;61.90;;;;;;5049202;28;20029;-73
2020/12/04 02:45:48;;;;;;;97.10;41.97;;;1.40;61.80;;;;;;5052041;28;20021;-72
2020/12/04 02:48:14;;;;;;;44.97;20.15;;;1.50;61.90;;;;;;5067399;28;20071;-72
2020/12/04 02:50:40;;;;;;;24.90;12.52;;;1.50;61.90;;;;;;5053547;28;20052;-72
2020/12/04 02:53:06;;;;;;;24.55;12.63;;;1.40;61.80;;;;;;5071199;28;20071;-73
2020/12/04 02:55:33;;;;;;;26.55;15.15;;;1.50;61.80;;;;;;5071125;28;20059;-73
2020/12/04 02:57:59;;;;;;;23.13;12.45;;;1.50;61.80;;;;;;5055700;28;20029;-71
2020/12/04 03:00:25;;;;;;;24.63;12.57;;;1.40;61.80;;;;;;5055564;28;20446;-71
2020/12/04 03:02:51;;;;;;;23.23;12.30;;;1.40;61.80;;;;;;5055599;28;20108;-71
2020/12/04 03:05:17;;;;;;;24.15;11.70;;;1.40;62.00;;;;;;5055415;28;20112;-71
2020/12/04 03:07:42;;;;;;;27.65;13.25;;;1.40;62.00;;;;;;5054184;28;20022;-72
2020/12/04 03:10:09;;;;;;;19.48;9.50;;;1.40;62.00;;;;;;5055464;28;20451;-73
2020/12/04 03:12:36;;;;;;;18.50;9.15;;;1.40;62.60;;;;;;5054042;28;20053;-73
2020/12/04 03:15:03;;;;;;;21.17;11.35;;;1.50;61.80;;;;;;5055335;28;20029;-72
2020/12/04 03:17:29;;;;;;;22.23;11.15;;;1.40;61.90;;;;;;5055388;28;20414;-72
2020/12/04 03:19:56;;;;;;;18.48;8.57;;;1.50;62.10;;;;;;5053954;28;20021;-72
2020/12/04 03:22:21;;;;;;;17.35;9.10;;;1.50;62.10;;;;;;5055007;28;20082;-72
2020/12/04 03:24:47;;;;;;;19.92;10.20;;;1.50;62.10;;;;;;5055142;28;20100;-71
2020/12/04 03:27:13;;;;;;;28.50;12.40;;;1.50;62.10;;;;;;5055166;28;20021;-71
2020/12/04 03:29:39;;;;;;;21.08;11.25;;;1.50;62.10;;;;;;5055273;28;20024;-71
2020/12/04 03:32:05;;;;;;;33.85;16.58;;;1.50;62.20;;;;;;5055188;28;20159;-71
2020/12/04 03:34:31;;;;;;;30.92;14.32;;;1.50;62.30;;;;;;5055080;28;20029;-73
2020/12/04 03:36:56;;;;;;;37.58;15.40;;;1.60;62.60;;;;;;5055072;28;20104;-72
2020/12/04 03:39:22;;;;;;;31.17;14.70;;;1.60;62.50;;;;;;5055044;28;20031;-71
2020/12/04 03:41:48;;;;;;;25.60;12.23;;;1.60;62.50;;;;;;5055163;28;20032;-71
2020/12/04 03:44:14;;;;;;;29.80;13.77;;;1.60;62.40;;;;;;5054618;28;20055;-70
2020/12/04 03:46:40;;;;;;;27.10;13.23;;;1.70;62.40;;;;;;5053439;28;20497;-71
2020/12/04 03:49:05;;;;;;;29.95;14.48;;;1.70;62.30;;;;;;5053322;28;20025;-71
2020/12/04 03:51:31;;;;;;;31.58;13.48;;;1.70;62.20;;;;;;5054657;28;20482;-71
2020/12/04 03:53:57;;;;;;;27.50;13.63;;;1.70;62.20;;;;;;5054567;28;20057;-70
2020/12/04 03:56:22;;;;;;;31.10;15.35;;;1.70;62.20;;;;;;5054590;28;20029;-70
2020/12/04 03:58:48;;;;;;;33.33;15.82;;;1.70;62.10;;;;;;5054448;28;20025;-71
2020/12/04 04:01:14;;;;;;;28.40;14.43;;;1.60;62.10;;;;;;5054329;28;20532;-70
2020/12/04 04:03:40;;;;;;;27.00;12.95;;;1.60;62.10;;;;;;5053856;28;20117;-70
2020/12/04 04:06:05;;;;;;;28.65;14.85;;;1.60;62.00;;;;;;5054318;28;20079;-72
2020/12/04 04:08:31;;;;;;;31.98;15.60;;;1.60;62.10;;;;;;5054998;28;20515;-72
2020/12/04 04:10:59;;;;;;;27.67;14.15;;;1.60;62.10;;;;;;5054262;28;20017;-72
2020/12/04 04:13:25;;;;;;;30.52;14.25;;;1.60;62.20;;;;;;5054297;28;20101;-70
2020/12/04 04:15:51;;;;;;;27.08;13.05;;;1.60;62.10;;;;;;5054930;28;20454;-72
2020/12/04 04:18:17;;;;;;;32.78;16.77;;;1.60;62.00;;;;;;5054427;28;20025;-70
2020/12/04 04:20:43;;;;;;;33.67;15.00;;;1.60;62.10;;;;;;5056318;28;20033;-70
2020/12/04 04:23:08;;;;;;;30.90;15.05;;;1.60;62.10;;;;;;5055610;28;20041;-70
2020/12/04 04:25:34;;;;;;;38.00;17.55;;;1.60;61.90;;;;;;5054952;28;20429;-71
2020/12/04 04:28:00;;;;;;;30.52;14.70;;;1.50;61.80;;;;;;5055050;28;20025;-71
2020/12/04 04:30:26;;;;;;;33.25;15.73;;;1.50;61.70;;;;;;5054289;28;20032;-71
2020/12/04 04:32:51;;;;;;;31.88;15.52;;;1.50;61.60;;;;;;5053965;28;20427;-71
2020/12/04 04:35:17;;;;;;;32.10;15.00;;;1.50;61.50;;;;;;5052568;28;20481;-71
2020/12/04 04:37:43;;;;;;;28.27;12.82;;;1.50;61.40;;;;;;5053840;28;20052;-72
2020/12/04 04:40:09;;;;;;;26.35;13.55;;;1.40;61.40;;;;;;5053655;28;20029;-71
2020/12/04 04:42:35;;;;;;;24.63;12.90;;;1.40;61.40;;;;;;5053813;28;20025;-72
2020/12/04 04:45:04;;;;;;;25.55;12.30;;;1.40;61.40;;;;;;5053289;28;20029;-70
2020/12/04 04:47:30;;;;;;;29.80;14.05;;;1.40;61.50;;;;;;5053571;28;20023;-72
2020/12/04 04:49:57;;;;;;;30.60;14.38;;;1.40;61.50;;;;;;5053565;28;20097;-72
2020/12/04 04:52:25;;;;;;;28.58;14.48;;;1.40;61.50;;;;;;5053424;28;20029;-71
2020/12/04 04:54:51;;;;;;;44.70;20.98;;;1.40;61.60;;;;;;5053364;28;20029;-72
2020/12/04 04:57:24;;;;;;;36.88;16.63;;;1.40;61.60;;;;;;5053422;28;20386;-72
2020/12/04 04:59:53;;;;;;;42.67;19.27;;;1.40;61.60;;;;;;5052201;28;20394;-72
2020/12/04 05:02:18;;;;;;;32.97;16.10;;;1.40;61.60;;;;;;5053281;28;20025;-71
2020/12/04 05:04:56;;;;;;;35.55;17.08;;;1.40;61.60;;;;;;5051876;28;20484;-72
2020/12/04 05:07:33;;;;;;;41.03;18.58;;;1.40;61.50;;;;;;5053314;28;20032;-71
2020/12/04 05:10:13;;;;;;;40.75;19.17;;;1.40;61.50;;;;;;5053264;28;20104;-70
2020/12/04 05:12:43;;;;;;;40.63;18.25;;;1.30;61.40;;;;;;5053174;28;20021;-73
2020/12/04 05:15:29;;;;;;;29.33;14.70;;;1.30;61.40;;;;;;5053118;28;20029;-70
2020/12/04 05:18:17;;;;;;;33.72;15.63;;;1.30;61.30;;;;;;5053107;28;20032;-72
2020/12/04 05:20:54;;;;;;;26.52;13.88;;;1.30;61.30;;;;;;5053117;28;20045;-71
2020/12/04 05:23:21;;;;;;;43.50;18.63;;;1.30;61.20;;;;;;5051533;28;20048;-73
2020/12/04 05:25:50;;;;;;;38.85;18.38;;;1.30;61.20;;;;;;5052850;28;20472;-73
2020/12/04 05:28:21;;;;;;;36.53;17.35;;;1.30;61.40;;;;;;5052840;28;20517;-71
2020/12/04 05:31:04;;;;;;;32.92;15.95;;;1.30;61.40;;;;;;5052815;28;20021;-71
2020/12/04 05:33:33;;;;;;;41.83;19.85;;;1.20;61.40;;;;;;5052873;28;20017;-71
2020/12/04 05:36:01;;;;;;;32.55;16.38;;;1.20;61.40;;;;;;5052786;28;20025;-74
2020/12/04 05:38:27;;;;;;;32.60;16.30;;;1.20;61.30;;;;;;5051384;28;20509;-72
2020/12/04 05:41:04;;;;;;;24.73;12.13;;;1.20;61.20;;;;;;5052630;28;20029;-73
2020/12/04 05:43:32;;;;;;;36.30;17.40;;;1.20;61.10;;;;;;5052473;28;20257;-72
2020/12/04 05:46:19;;;;;;;40.78;18.83;;;1.20;61.10;;;;;;5052591;28;20059;-72
2020/12/04 05:49:07;;;;;;;40.90;18.10;;;1.10;61.10;;;;;;5052648;28;20027;-72
2020/12/04 05:51:35;;;;;;;44.63;20.58;;;1.10;61.10;;;;;;5052693;28;20481;-73
2020/12/04 05:54:10;;;;;;;33.88;16.10;;;1.10;61.10;;;;;;5052564;28;20028;-70
2020/12/04 05:56:38;;;;;;;30.75;15.05;;;1.10;61.00;;;;;;5052559;28;20046;-73
2020/12/04 05:59:19;;;;;;;24.80;13.20;;;1.10;61.00;;;;;;5052509;28;20056;-73
2020/12/04 06:01:48;;;;;;;26.30;14.00;;;1.10;61.00;;;;;;5052492;28;20462;-72
2020/12/04 06:04:18;;;;;;;30.75;15.32;;;1.10;61.00;;;;;;5051084;28;20040;-72
2020/12/04 06:06:45;;;;;;;47.15;17.70;;;1.10;61.00;;;;;;5052262;28;20025;-73
2020/12/04 06:09:12;;;;;;;30.08;15.32;;;1.00;61.10;;;;;;5052488;28;20036;-72
2020/12/04 06:11:39;;;;;;;29.27;14.98;;;1.00;62.00;;;;;;5052914;28;20025;-72
2020/12/04 06:14:26;;;;;;;32.90;14.20;;;1.00;61.30;;;;;;5052373;28;20482;-72
2020/12/04 06:17:00;;;;;;;32.45;16.55;;;1.00;61.30;;;;;;5051041;28;20044;-71
2020/12/04 06:19:30;;;;;;;32.90;16.55;;;1.00;61.30;;;;;;5052320;28;20467;-71
2020/12/04 06:22:06;;;;;;;28.50;14.85;;;1.00;61.30;;;;;;5052328;28;20025;-74
2020/12/04 06:24:52;;;;;;;31.08;13.68;;;1.00;61.40;;;;;;5052112;28;20041;-73
2020/12/04 06:27:36;;;;;;;25.65;12.70;;;1.00;61.30;;;;;;5052170;28;20044;-73
2020/12/04 06:30:03;;;;;;;;;;;1.00;61.30;;;;;;5056638;28;20033;-73
2020/12/04 06:32:49;;;;;;;32.42;16.58;;;1.00;61.20;;;;;;5056189;28;19940;-72
2020/12/04 06:35:39;;;;;;;30.35;14.23;;;1.00;61.30;;;;;;5054766;28;20028;-71
2020/12/04 06:38:05;;;;;;;32.75;15.77;;;1.00;61.40;;;;;;5056107;28;20029;-70
2020/12/04 06:40:31;;;;;;;35.08;16.98;;;1.00;61.40;;;;;;5056097;28;20882;-72
2020/12/04 06:43:00;;;;;;;32.28;14.35;;;1.00;61.40;;;;;;5055717;28;20028;-70
2020/12/04 06:45:48;;;;;;;22.73;11.10;;;1.00;61.40;;;;;;5054626;28;20032;-73
2020/12/04 06:48:16;;;;;;;35.03;15.75;;;1.00;61.50;;;;;;5055926;28;20569;-70
2020/12/04 06:50:44;;;;;;;28.50;13.85;;;1.00;61.50;;;;;;5056026;28;20025;-70
2020/12/04 06:53:12;;;;;;;36.03;18.38;;;1.00;61.50;;;;;;5054421;28;20017;-70
2020/12/04 06:55:39;;;;;;;29.25;14.50;;;1.00;61.70;;;;;;5055754;28;20040;-70
2020/12/04 06:58:06;;;;;;;35.95;16.50;;;1.00;61.70;;;;;;5055920;28;20025;-70
2020/12/04 07:00:32;;;;;;;38.10;19.33;;;1.10;61.80;;;;;;5055704;28;20158;-71
2020/12/04 07:02:59;;;;;;;32.30;17.17;;;1.10;62.60;;;;;;5055597;28;20501;-70
2020/12/04 07:05:26;;;;;;;36.50;17.58;;;1.10;61.90;;;;;;5055532;28;20036;-73
2020/12/04 07:08:06;;;;;;;35.78;18.00;;;1.10;62.00;;;;;;5055660;28;20025;-72
2020/12/04 07:10:33;;;;;;;32.67;16.17;;;1.10;62.00;;;;;;5055600;28;20017;-72
2020/12/04 07:13:01;;;;;;;27.98;14.25;;;1.10;62.00;;;;;;5055599;28;20017;-73
2020/12/04 07:15:28;;;;;;;29.42;13.73;;;1.20;62.00;;;;;;5055361;28;20029;-71
2020/12/04 07:17:55;;;;;;;28.10;14.27;;;1.20;62.00;;;;;;5055429;28;20091;-73
2020/12/04 07:20:21;;;;;;;31.73;15.63;;;1.30;62.10;;;;;;5055308;28;20404;-70
2020/12/04 07:22:47;;;;;;;29.52;15.80;;;1.30;62.10;;;;;;5055220;28;20045;-72
2020/12/04 07:25:13;;;;;;;30.20;14.07;;;1.40;62.30;;;;;;5055145;28;20482;-71
2020/12/04 07:27:39;;;;;;;37.08;17.85;;;1.40;62.40;;;;;;5055293;28;20017;-71
2020/12/04 07:30:15;;;;;;;43.10;19.27;;;1.50;62.50;;;;;;5055163;28;20032;-72
2020/12/04 07:32:52;;;;;;;29.48;15.23;;;1.60;62.80;;;;;;5053760;28;20052;-72
2020/12/04 07:35:18;;;;;;;34.97;16.73;;;1.70;63.00;;;;;;5053739;28;20064;-73
2020/12/04 07:37:44;;;;;;;27.95;13.70;;;1.80;63.00;;;;;;5052362;28;20029;-72
2020/12/04 07:40:11;;;;;;;31.42;15.60;;;2.00;63.10;;;;;;5056299;28;20070;-72
2020/12/04 07:42:37;;;;;;;31.42;15.57;;;2.10;63.00;;;;;;5054954;28;20028;-71
2020/12/04 07:45:03;;;;;;;31.63;14.68;;;2.30;62.60;;;;;;5054668;28;20029;-69
2020/12/04 07:47:29;;;;;;;28.25;14.60;;;2.40;62.30;;;;;;5054408;28;20107;-70
2020/12/04 07:50:00;;;;;;;25.90;13.35;;;2.60;62.40;;;;;;5054903;28;20030;-71
2020/12/04 07:52:36;;;;;;;28.85;14.88;;;2.70;62.10;;;;;;5054756;28;20021;-72
2020/12/04 07:55:10;;;;;;;22.85;11.43;;;2.80;61.80;;;;;;5054876;28;20043;-72
2020/12/04 07:57:44;;;;;;;28.23;13.93;;;3.00;61.60;;;;;;5054606;28;20100;-73
2020/12/04 08:00:14;;;;;;;28.52;14.10;;;3.10;61.30;;;;;;5054635;28;20075;-71
2020/12/04 08:02:40;;;;;;;27.15;14.30;;;3.20;60.50;;;;;;5054576;28;20104;-72
2020/12/04 08:05:06;;;;;;;29.23;14.80;;;3.30;60.00;;;;;;5053080;28;20124;-72
2020/12/04 08:07:33;;;;;;;29.52;15.10;;;3.40;59.60;;;;;;5054493;28;20079;-72
2020/12/04 08:10:00;;;;;;;29.73;14.40;;;3.40;59.10;;;;;;5053394;28;20112;-72
2020/12/04 08:12:33;;;;;;;24.70;13.20;;;3.40;58.90;;;;;;5054243;28;20082;-71
2020/12/04 08:15:02;;;;;;;28.25;13.18;;;3.30;58.50;;;;;;5054392;28;20025;-72
2020/12/04 08:17:31;;;;;;;28.13;14.75;;;3.30;58.40;;;;;;5052919;28;20042;-70
2020/12/04 08:19:59;;;;;;;27.75;13.77;;;3.20;58.50;;;;;;5054315;28;20403;-72
2020/12/04 08:22:34;;;;;;;23.48;11.15;;;3.20;58.70;;;;;;5053895;28;20108;-71
2020/12/04 08:25:07;;;;;;;30.85;14.07;;;3.20;58.90;;;;;;5054010;28;20109;-70
2020/12/04 08:27:44;;;;;;;26.73;12.75;;;3.20;58.90;;;;;;5054192;28;20028;-70
2020/12/04 08:30:15;;;;;;;24.42;12.60;;;3.20;59.10;;;;;;5054070;28;20025;-71
2020/12/04 08:32:54;;;;;;;22.00;11.25;;;3.20;59.30;;;;;;5052683;28;20033;-72
2020/12/04 08:35:21;;;;;;;25.23;12.73;;;3.20;59.50;;;;;;5054001;28;20025;-70
2020/12/04 08:37:49;;;;;;;27.88;12.23;;;3.30;59.70;;;;;;5052567;28;20033;-71
2020/12/04 08:40:23;;;;;;;23.25;12.52;;;3.30;59.80;;;;;;5053702;28;20052;-71
2020/12/04 08:42:50;;;;;;;28.65;15.15;;;3.40;60.00;;;;;;5053705;28;20020;-71
2020/12/04 08:45:16;;;;;;;22.60;12.75;;;3.50;60.30;;;;;;5053591;28;20087;-72
2020/12/04 08:47:46;;;;;;;24.92;13.35;;;3.50;60.30;;;;;;5053300;28;20474;-72
2020/12/04 08:50:21;;;;;;;28.13;13.75;;;3.60;60.20;;;;;;5053529;28;20482;-72
2020/12/04 08:52:52;;;;;;;25.60;12.57;;;3.70;60.20;;;;;;5052233;28;20474;-70
2020/12/04 08:55:26;;;;;;;22.45;10.63;;;3.80;60.30;;;;;;5053503;28;20037;-70
2020/12/04 08:57:54;;;;;;;38.47;16.88;;;3.90;60.30;;;;;;5053464;28;20470;-72
2020/12/04 09:00:27;;;;;;;35.53;16.65;;;3.90;60.20;;;;;;5053402;28;20060;-70
2020/12/04 09:02:53;;;;;;;35.72;15.15;;;4.00;60.10;;;;;;5056977;28;20059;-71
2020/12/04 09:05:19;;;;;;;29.27;14.68;;;4.10;60.10;;;;;;5067611;28;20098;-72
2020/12/04 09:07:45;;;;;;;29.30;14.52;;;4.10;59.90;;;;;;5073276;28;20020;-70
2020/12/04 09:10:13;;;;;;;22.30;12.25;;;4.20;59.80;;;;;;5071925;28;20032;-70
2020/12/04 09:12:40;;;;;;;28.00;13.05;;;4.30;59.80;;;;;;5066847;28;20489;-72
2020/12/04 09:15:08;;;;;;;26.83;13.63;;;4.40;59.80;;;;;;5052858;28;20036;-72
2020/12/04 09:17:35;;;;;;;25.80;14.18;;;4.40;59.70;;;;;;5053170;28;20036;-70
2020/12/04 09:20:01;;;;;;;22.50;13.27;;;4.40;59.50;;;;;;5052995;28;20032;-70
2020/12/04 09:22:27;;;;;;;26.83;13.68;;;4.50;59.50;;;;;;5052737;28;20059;-70
2020/12/04 09:24:52;;;;;;;21.45;11.55;;;4.60;59.60;;;;;;5052928;28;20037;-71
2020/12/04 09:27:19;;;;;;;21.20;11.70;;;4.60;59.60;;;;;;5053070;28;20033;-71
2020/12/04 09:29:45;;;;;;;19.13;10.75;;;4.70;59.70;;;;;;5053074;28;20144;-72
2020/12/04 09:32:16;;;;;;;21.42;11.98;;;4.80;59.70;;;;;;5068098;28;20108;-71
2020/12/04 09:34:46;;;;;;;20.23;11.30;;;4.90;59.60;;;;;;5052883;28;20028;-72
2020/12/04 09:37:25;;;;;;;20.13;10.95;;;4.90;59.40;;;;;;5052594;28;20473;-72
2020/12/04 09:39:54;;;;;;;22.80;11.63;;;5.00;59.40;;;;;;5052674;28;20037;-72
2020/12/04 09:42:21;;;;;;;19.60;10.95;;;5.10;59.20;;;;;;5049923;28;20032;-71
2020/12/04 09:44:48;;;;;;;23.23;12.23;;;5.10;59.10;;;;;;5032669;28;20023;-71
2020/12/04 09:47:16;;;;;;;31.25;13.60;;;5.20;59.10;;;;;;5047731;28;20084;-71
2020/12/04 09:49:42;;;;;;;22.88;12.02;;;5.30;59.00;;;;;;5071382;28;20020;-73
2020/12/04 09:52:09;;;;;;;24.73;12.95;;;5.30;58.60;;;;;;5057408;28;20518;-71
2020/12/04 09:54:38;;;;;;;23.88;12.55;;;5.40;58.50;;;;;;5052529;28;20024;-71
2020/12/04 09:57:05;;;;;;;24.20;11.75;;;5.50;58.60;;;;;;5052336;28;20021;-71
2020/12/04 09:59:32;;;;;;;20.40;11.43;;;5.50;58.70;;;;;;5051804;28;20104;-73
2020/12/04 10:01:58;;;;;;;27.80;11.27;;;5.60;58.80;;;;;;5052243;28;20032;-71
2020/12/04 10:04:24;;;;;;;25.75;12.80;;;5.70;58.90;;;;;;5052518;28;20025;-72
2020/12/04 10:06:51;;;;;;;24.33;11.27;;;5.80;58.90;;;;;;5052457;28;20021;-71
2020/12/04 10:09:18;;;;;;;23.60;13.00;;;5.80;58.90;;;;;;5052481;28;20024;-71
2020/12/04 10:11:44;;;;;;;29.90;14.35;;;6.00;58.90;;;;;;5054479;28;20445;-71
2020/12/04 10:14:10;;;;;;;31.58;13.05;;;6.10;58.80;;;;;;5053502;28;20032;-74
2020/12/04 10:16:36;;;;;;;28.70;14.55;;;6.20;58.70;;;;;;5050309;28;20363;-73
2020/12/04 10:19:02;;;;;;;36.35;14.55;;;6.30;58.70;;;;;;5032530;28;20029;-72
2020/12/04 10:21:33;;;;;;;21.27;12.15;;;6.50;58.80;;;;;;5049892;28;20478;-73
2020/12/04 10:23:59;;;;;;;31.45;13.93;;;6.60;59.30;;;;;;5045260;28;20406;-73
2020/12/04 10:26:24;;;;;;;35.10;15.23;;;6.70;58.60;;;;;;5046481;28;20029;-71
2020/12/04 10:28:51;;;;;;;56.40;18.65;;;6.80;58.30;;;;;;5050764;28;20026;-72
2020/12/04 10:31:16;;;;;;;36.28;17.67;;;6.90;58.20;;;;;;5039669;28;20028;-71
2020/12/04 10:33:42;;;;;;;39.85;17.10;;;7.00;58.00;;;;;;5052152;28;20029;-73
2020/12/04 10:36:08;;;;;;;30.15;15.40;;;7.10;57.80;;;;;;5037776;28;20044;-73
2020/12/04 10:38:34;;;;;;;24.98;15.00;;;7.10;57.50;;;;;;5047617;28;20029;-72
2020/12/04 10:41:00;;;;;;;28.40;15.20;;;7.20;57.50;;;;;;5039126;28;20079;-71
2020/12/04 10:43:26;;;;;;;33.40;17.00;;;7.30;57.70;;;;;;5043666;28;20025;-72
2020/12/04 10:45:52;;;;;;;41.10;20.92;;;7.40;57.90;;;;;;5047756;28;20037;-72
2020/12/04 10:48:18;;;;;;;45.78;23.60;;;7.50;57.70;;;;;;5052232;28;20025;-72
2020/12/04 10:50:45;;;;;;;48.45;24.40;;;7.60;57.30;;;;;;5048669;28;20071;-71
2020/12/04 10:53:11;;;;;;;664.03;478.60;;;7.70;56.70;;;;;;5051979;28;20033;-71
2020/12/04 10:55:37;;;;;;;59.45;33.85;;;7.70;56.60;;;;;;5050652;28;20371;-73
2020/12/04 10:58:03;;;;;;;39.55;20.30;;;7.70;56.50;;;;;;5042660;28;20023;-72
2020/12/04 11:00:29;;;;;;;34.63;17.95;;;7.70;56.50;;;;;;5032389;28;20026;-71
2020/12/04 11:03:08;;;;;;;39.35;20.90;;;7.80;56.80;;;;;;5036661;28;20470;-70
2020/12/04 11:07:59;;;;;;;38.20;17.55;;;7.90;56.70;;;;;;5031958;28;20033;-73
2020/12/04 11:10:25;;;;;;;34.83;18.42;;;8.00;56.90;;;;;;5050546;28;20032;-71
2020/12/04 11:12:51;;;;;;;39.72;20.15;;;8.10;56.90;;;;;;5055486;28;20064;-72
2020/12/04 11:15:17;;;;;;;47.55;22.70;;;8.30;56.80;;;;;;5067190;28;20027;-71
2020/12/04 11:17:43;;;;;;;55.70;26.88;;;8.40;56.00;;;;;;5073862;28;20036;-72
2020/12/04 11:20:08;;;;;;;60.38;25.98;;;8.50;55.00;;;;;;5055481;28;20033;-71
2020/12/04 11:22:35;;;;;;;51.08;26.77;;;8.50;54.90;;;;;;5058383;28;20044;-73
2020/12/04 11:25:02;;;;;;;56.40;27.95;;;8.60;54.80;;;;;;5038386;28;20033;-73
2020/12/04 11:27:28;;;;;;;75.35;33.97;;;8.60;54.90;;;;;;5052459;28;20319;-72
2020/12/04 11:29:54;;;;;;;71.88;31.42;;;8.70;55.10;;;;;;5062280;28;20020;-73
2020/12/04 11:32:20;;;;;;;71.88;32.38;;;8.80;55.20;;;;;;5062994;28;20452;-73
2020/12/04 11:34:46;;;;;;;63.53;29.83;;;8.80;55.20;;;;;;5055644;28;20359;-72
2020/12/04 11:37:13;;;;;;;62.83;29.88;;;8.90;55.20;;;;;;5055105;28;20033;-73
2020/12/04 11:39:40;;;;;;;74.22;37.03;;;9.00;55.20;;;;;;5053370;28;20021;-71
2020/12/04 11:42:10;;;;;;;70.32;37.10;;;9.10;55.10;;;;;;5050253;28;20083;-73
2020/12/04 11:44:36;;;;;;;74.35;34.63;;;9.20;55.10;;;;;;5042100;28;20479;-72
2020/12/04 11:47:03;;;;;;;72.82;36.42;;;9.20;54.90;;;;;;5051403;28;20539;-72
2020/12/04 11:49:28;;;;;;;71.88;36.55;;;9.30;54.70;;;;;;5053868;28;20025;-71
2020/12/04 11:51:55;;;;;;;62.47;30.80;;;9.40;54.50;;;;;;5054852;28;20394;-72
2020/12/04 11:54:21;;;;;;;57.03;28.98;;;9.40;54.20;;;;;;5055335;28;20032;-73
2020/12/04 11:56:50;;;;;;;59.30;29.23;;;9.40;54.20;;;;;;5054201;28;20048;-72
2020/12/04 11:59:17;;;;;;;58.90;32.78;;;9.50;53.90;;;;;;5055329;28;20029;-70
2020/12/04 12:01:43;;;;;;;50.53;26.55;;;9.50;53.60;;;;;;5053544;28;20049;-71
2020/12/04 12:04:12;;;;;;;52.65;27.02;;;9.50;53.70;;;;;;5055648;28;20078;-72
2020/12/04 12:06:38;;;;;;;53.28;26.63;;;9.50;53.80;;;;;;5073890;28;20035;-72
2020/12/04 12:09:04;;;;;;;54.40;27.10;;;9.40;53.80;;;;;;5070255;28;20080;-71
2020/12/04 12:11:30;;;;;;;42.22;22.63;;;9.40;53.80;;;;;;5053897;28;20025;-72
2020/12/04 12:13:55;;;;;;;46.15;24.52;;;9.40;54.00;;;;;;5055132;28;20075;-73
2020/12/04 12:16:21;;;;;;;46.22;25.52;;;9.40;54.00;;;;;;5054902;28;20025;-73
2020/12/04 12:18:48;;;;;;;56.05;27.05;;;9.40;54.20;;;;;;5054937;28;20108;-72
2020/12/04 12:21:13;;;;;;;52.70;28.00;;;9.40;54.20;;;;;;5055078;28;20032;-70
2020/12/04 12:23:39;;;;;;;44.45;24.38;;;9.40;54.10;;;;;;5054291;28;20045;-73
2020/12/04 12:26:06;;;;;;;60.85;26.63;;;9.30;54.20;;;;;;5055190;28;20032;-72
2020/12/04 12:28:32;;;;;;;46.53;24.10;;;9.40;54.20;;;;;;5054058;28;20440;-71
2020/12/04 12:30:59;;;;;;;50.45;25.27;;;9.30;54.30;;;;;;5049723;28;20018;-72
2020/12/04 12:33:26;;;;;;;48.50;26.08;;;9.30;54.30;;;;;;5050389;28;20036;-73
2020/12/04 12:35:52;;;;;;;51.50;24.95;;;9.30;54.30;;;;;;5053745;28;20025;-71
2020/12/04 12:38:17;;;;;;;43.58;24.23;;;9.20;54.30;;;;;;5055128;28;20078;-71
2020/12/04 12:40:43;;;;;;;52.85;27.17;;;9.20;54.40;;;;;;5047409;28;20087;-72
2020/12/04 12:43:09;;;;;;;59.92;30.20;;;9.20;54.40;;;;;;5048050;28;20022;-71
2020/12/04 12:45:34;;;;;;;60.35;28.40;;;9.20;54.20;;;;;;5051949;28;20106;-72